Time;durP1;ratioP1;P1;durP2;ratioP2;P2;SDS_P1;SDS_P2;PMS_P1;PMS_P2;Temp;Humidity;BMP_temperature;BMP_pressure;BME280_temperature;BME280_humidity;BME280_pressure;Samples;Min_cycle;Max_cycle;Signal;HPM_P1;HPM_P2
2023/04/01 00:01:34;;;;;;;2.90;1.45;;;9.30;99.90;;;;;;6161534;23;20233;-78
2023/04/01 00:04:01;;;;;;;4.88;1.55;;;9.30;99.90;;;;;;6161750;23;20158;-78
2023/04/01 00:06:28;;;;;;;6.78;1.70;;;9.30;99.90;;;;;;6161047;23;20175;-78
2023/04/01 00:08:53;;;;;;;3.90;1.67;;;9.20;99.90;;;;;;6187443;23;20185;-78
2023/04/01 00:11:19;;;;;;;5.65;1.63;;;9.20;99.90;;;;;;6162566;23;20159;-78
2023/04/01 00:13:45;;;;;;;4.35;1.73;;;9.20;99.90;;;;;;6161421;23;20297;-78
2023/04/01 00:16:10;;;;;;;4.53;1.70;;;9.20;99.90;;;;;;6161066;23;20183;-78
2023/04/01 00:18:37;;;;;;;5.80;1.67;;;9.20;99.90;;;;;;6162030;23;20167;-78
2023/04/01 00:21:03;;;;;;;4.15;1.90;;;9.20;99.90;;;;;;6188117;23;20638;-78
2023/04/01 00:23:29;;;;;;;5.53;1.63;;;9.20;99.90;;;;;;6161668;23;20190;-78
2023/04/01 00:25:54;;;;;;;5.18;1.67;;;9.10;99.90;;;;;;6161787;23;20174;-78
2023/04/01 00:28:20;;;;;;;6.18;1.80;;;9.10;99.90;;;;;;6160942;23;20163;-78
2023/04/01 00:30:48;;;;;;;5.75;1.60;;;9.10;99.90;;;;;;6161889;23;20158;-78
2023/04/01 00:33:14;;;;;;;3.60;1.45;;;9.10;99.90;;;;;;6187615;23;20166;-78
2023/04/01 00:35:40;;;;;;;5.85;2.42;;;9.10;99.90;;;;;;6161404;23;20170;-78
2023/04/01 00:38:06;;;;;;;4.85;1.55;;;9.10;99.90;;;;;;6161350;23;20155;-78
2023/04/01 00:40:38;;;;;;;4.70;1.77;;;9.00;99.90;;;;;;6187511;23;20175;-78
2023/04/01 00:43:11;;;;;;;5.38;1.63;;;9.00;99.90;;;;;;6161447;23;20221;-78
2023/04/01 00:45:40;;;;;;;6.25;1.92;;;9.00;99.90;;;;;;6160898;23;20147;-78
2023/04/01 00:48:22;;;;;;;5.88;1.90;;;9.00;99.90;;;;;;6160929;23;20159;-78
2023/04/01 00:51:01;;;;;;;4.68;1.70;;;9.00;99.90;;;;;;6162347;23;20150;-78
2023/04/01 00:53:29;;;;;;;3.75;1.63;;;8.90;99.90;;;;;;6187819;23;20166;-78
2023/04/01 00:56:09;;;;;;;4.13;1.70;;;8.90;99.90;;;;;;6161036;23;20616;-78
2023/04/01 00:58:39;;;;;;;4.15;1.63;;;8.90;99.90;;;;;;6161208;23;20159;-78
2023/04/01 09:44:15;;;;;;;1.13;0.90;;;11.60;99.90;;;;;;6334019;22;20208;-94
2023/04/01 11:11:48;;;;;;;4.28;3.97;;;12.50;99.90;;;;;;6296802;22;20211;-77
2023/04/01 11:14:42;;;;;;;5.88;5.40;;;12.60;99.90;;;;;;6281523;22;20179;-77
2023/04/01 11:17:26;;;;;;;4.85;4.45;;;12.50;99.90;;;;;;6281750;22;20265;-77
2023/04/01 11:20:02;;;;;;;2.38;2.28;;;12.50;99.90;;;;;;6280976;22;20176;-77
2023/04/01 11:26:26;;;;;;;2.85;2.30;;;12.30;99.90;;;;;;6308118;22;20175;-74
2023/04/01 11:29:22;;;;;;;9.48;5.68;;;12.20;99.90;;;;;;6281346;22;20171;-74
2023/04/01 11:32:04;;;;;;;2.53;1.70;;;12.00;99.90;;;;;;6308093;22;20224;-74
2023/04/01 11:35:02;;;;;;;2.47;1.67;;;11.90;99.90;;;;;;6281401;22;20145;-75
2023/04/01 11:37:33;;;;;;;1.98;1.50;;;12.10;99.90;;;;;;6281736;22;20172;-75
2023/04/01 11:40:24;;;;;;;1.70;1.30;;;12.30;99.90;;;;;;6282261;22;20169;-75
2023/04/01 11:43:00;;;;;;;1.42;1.38;;;12.20;99.90;;;;;;6283509;22;20151;-75
2023/04/01 11:46:13;;;;;;;1.10;1.10;;;12.30;99.90;;;;;;6282183;22;20144;-75
2023/04/01 11:49:06;;;;;;;8.80;5.18;;;12.40;99.90;;;;;;6283236;22;20141;-75
2023/04/01 11:52:06;;;;;;;2.38;1.92;;;12.70;99.90;;;;;;6283317;22;20148;-75
2023/04/01 11:55:00;;;;;;;0.80;0.80;;;12.70;99.90;;;;;;6309760;22;20136;-73
2023/04/01 12:01:08;;;;;;;0.70;0.68;;;13.00;99.90;;;;;;6309645;22;20218;-73
2023/04/01 12:03:39;;;;;;;0.80;0.80;;;13.00;99.90;;;;;;6310266;22;20132;-73
2023/04/01 12:06:13;;;;;;;1.70;0.50;;;13.00;99.90;;;;;;6285943;22;20233;-73
2023/04/01 12:08:54;;;;;;;0.75;0.52;;;13.10;99.90;;;;;;6313388;22;20591;-74
2023/04/01 12:11:30;;;;;;;0.52;0.52;;;13.10;99.90;;;;;;6281609;22;20183;-73
2023/04/01 12:14:01;;;;;;;0.60;0.60;;;12.90;99.90;;;;;;6279959;22;20137;-74
2023/04/01 12:16:50;;;;;;;1.02;0.60;;;12.80;99.90;;;;;;6280091;22;20172;-73
2023/04/01 12:19:40;;;;;;;0.65;0.60;;;12.60;99.90;;;;;;6281603;22;20145;-73
2023/04/01 12:22:39;;;;;;;1.73;0.70;;;12.50;99.90;;;;;;6282129;22;20172;-73
2023/04/01 12:25:43;;;;;;;1.05;0.93;;;12.70;99.90;;;;;;6279223;22;20214;-74
2023/04/01 12:28:25;;;;;;;1.80;1.20;;;13.00;99.90;;;;;;6245705;22;20206;-73
2023/04/01 12:31:12;;;;;;;2.70;0.90;;;13.20;99.90;;;;;;6279663;22;20145;-74
2023/04/01 12:33:52;;;;;;;1.58;0.95;;;13.30;99.90;;;;;;6276844;22;20504;-72
2023/04/01 12:36:53;;;;;;;2.70;0.80;;;13.30;99.90;;;;;;6277755;22;20267;-72
2023/04/01 12:39:55;;;;;;;1.38;0.80;;;13.20;99.90;;;;;;6278340;22;20167;-72
2023/04/01 12:42:50;;;;;;;0.80;0.80;;;13.10;99.90;;;;;;6277730;22;20168;-72
2023/04/01 12:45:32;;;;;;;0.50;0.50;;;13.10;99.90;;;;;;6277826;22;20220;-72
2023/04/01 12:48:21;;;;;;;1.35;0.73;;;13.00;99.90;;;;;;6276855;22;20195;-72
2023/04/01 12:51:09;;;;;;;0.68;0.68;;;13.00;99.90;;;;;;6276660;22;20149;-72
2023/04/01 12:57:10;;;;;;;0.65;0.65;;;12.90;99.90;;;;;;6277966;22;20215;-72
2023/04/01 13:03:49;;;;;;;2.22;0.55;;;12.80;99.90;;;;;;6278012;22;20140;-72
2023/04/01 13:07:11;;;;;;;0.60;0.60;;;12.70;99.90;;;;;;6276756;22;20342;-72
2023/04/01 13:10:22;;;;;;;1.02;0.63;;;12.50;99.90;;;;;;6280644;22;20144;-73
2023/04/01 13:12:57;;;;;;;1.17;1.17;;;12.30;99.90;;;;;;6232394;22;20161;-73
2023/04/01 13:15:26;;;;;;;0.98;0.98;;;12.20;99.90;;;;;;6279203;22;20140;-73
2023/04/01 13:18:18;;;;;;;0.80;0.80;;;12.20;99.90;;;;;;6280364;22;20172;-73
2023/04/01 13:21:17;;;;;;;0.55;0.55;;;12.20;99.90;;;;;;6280256;22;20248;-73
2023/04/01 13:24:11;;;;;;;3.85;0.77;;;12.20;99.90;;;;;;6279747;22;20192;-74
2023/04/01 13:26:53;;;;;;;1.40;0.63;;;12.30;99.90;;;;;;6280128;22;20195;-73
2023/04/01 13:29:35;;;;;;;6.88;5.50;;;12.30;99.90;;;;;;6278359;22;20230;-72
2023/04/01 13:32:00;;;;;;;1.00;1.00;;;12.40;99.90;;;;;;6277851;22;20176;-73
2023/04/01 13:34:47;;;;;;;0.70;0.70;;;12.40;99.90;;;;;;6278365;22;20165;-72
2023/04/01 13:37:22;;;;;;;0.60;0.60;;;12.30;99.90;;;;;;6279653;22;20173;-73
2023/04/01 13:40:03;;;;;;;0.50;0.50;;;12.20;99.90;;;;;;6279071;22;20176;-73
2023/04/01 13:43:04;;;;;;;0.60;0.60;;;12.30;99.90;;;;;;6279399;22;20149;-73
2023/04/01 13:45:57;;;;;;;1.08;0.65;;;12.30;99.90;;;;;;6230974;22;20153;-72
2023/04/01 13:48:40;;;;;;;0.70;0.70;;;12.20;99.90;;;;;;6281044;22;20621;-72
2023/04/01 13:51:21;;;;;;;1.50;0.68;;;12.30;99.90;;;;;;6279110;22;20191;-73
2023/04/01 13:54:09;;;;;;;0.52;0.52;;;12.40;99.90;;;;;;6279799;22;20605;-73
2023/04/01 13:57:12;;;;;;;0.57;0.57;;;12.30;99.90;;;;;;6279552;22;20176;-73
2023/04/01 14:00:15;;;;;;;2.92;0.65;;;12.30;99.90;;;;;;6280917;22;20208;-74
2023/04/01 14:03:08;;;;;;;2.53;0.65;;;12.10;99.90;;;;;;6279222;22;20597;-73
2023/04/01 14:06:01;;;;;;;1.77;0.60;;;12.00;99.90;;;;;;6281431;22;20141;-73
2023/04/01 14:09:02;;;;;;;0.68;0.68;;;11.90;99.90;;;;;;6281583;22;20554;-74
2023/04/01 14:12:05;;;;;;;0.60;0.60;;;11.80;99.90;;;;;;6273357;22;20176;-79
2023/04/01 14:15:01;;;;;;;0.60;0.60;;;11.70;99.90;;;;;;6279969;22;20163;-76
2023/04/01 14:17:35;;;;;;;0.60;0.60;;;11.80;99.90;;;;;;6279279;22;20267;-73
2023/04/01 14:20:30;;;;;;;1.75;0.90;;;12.00;99.90;;;;;;6279774;22;20173;-74
2023/04/01 14:23:36;;;;;;;1.17;1.17;;;12.20;99.90;;;;;;6280019;22;20199;-74
2023/04/01 14:26:11;;;;;;;1.15;1.15;;;12.50;99.90;;;;;;6162348;23;20178;-74
2023/04/01 14:29:09;;;;;;;1.40;1.40;;;12.40;99.90;;;;;;6266262;22;20163;-73
2023/04/01 14:32:07;;;;;;;1.05;1.05;;;12.50;99.90;;;;;;6280204;22;20156;-74
2023/04/01 14:34:42;;;;;;;1.52;0.85;;;12.50;99.90;;;;;;6275828;22;20149;-73
2023/04/01 14:37:37;;;;;;;1.90;1.80;;;12.40;99.90;;;;;;6277163;22;20169;-73
2023/04/01 14:40:27;;;;;;;1.48;1.40;;;12.20;99.90;;;;;;6275570;22;20625;-74
2023/04/01 14:42:56;;;;;;;4.20;3.90;;;11.90;99.90;;;;;;6275534;22;20207;-74
2023/04/01 14:45:59;;;;;;;5.07;3.22;;;11.80;99.90;;;;;;6275941;22;20149;-73
2023/04/01 14:48:59;;;;;;;1.10;1.10;;;11.80;99.90;;;;;;6275515;22;20160;-73
2023/04/01 14:51:38;;;;;;;1.10;0.95;;;11.90;99.90;;;;;;6269896;22;20235;-74
2023/04/01 14:54:22;;;;;;;0.90;0.90;;;12.10;99.90;;;;;;6276672;22;20198;-74
2023/04/01 14:56:50;;;;;;;0.80;0.80;;;12.20;99.90;;;;;;6277371;22;20620;-72
2023/04/01 14:59:21;;;;;;;4.50;1.10;;;12.20;99.90;;;;;;6277295;22;20164;-72
2023/04/01 15:01:55;;;;;;;0.88;0.88;;;12.20;99.90;;;;;;6276022;22;20185;-72
2023/04/01 15:04:33;;;;;;;0.70;0.70;;;12.10;99.90;;;;;;6276909;22;20139;-72
2023/04/01 15:07:23;;;;;;;0.70;0.70;;;12.00;99.90;;;;;;6275302;22;20242;-72
2023/04/01 15:10:00;;;;;;;1.48;1.48;;;11.90;99.90;;;;;;6276505;22;20149;-72
2023/04/01 15:12:34;;;;;;;1.10;1.10;;;11.80;99.90;;;;;;6307939;22;20154;-72
2023/04/01 15:15:14;;;;;;;2.03;1.92;;;11.70;99.90;;;;;;6280925;22;20494;-72
2023/04/01 15:17:58;;;;;;;3.47;2.20;;;11.80;99.90;;;;;;6308046;22;20627;-72
2023/04/01 15:20:43;;;;;;;1.40;1.40;;;11.80;99.90;;;;;;6281340;22;20172;-72
2023/04/01 15:23:34;;;;;;;2.03;1.92;;;11.70;99.90;;;;;;6281466;22;20140;-72
2023/04/01 15:26:08;;;;;;;1.17;1.17;;;11.60;99.90;;;;;;6281245;22;20206;-72
2023/04/01 15:28:47;;;;;;;2.60;2.40;;;11.60;99.90;;;;;;6281134;22;20147;-72
2023/04/01 15:31:38;;;;;;;1.20;1.20;;;11.60;99.90;;;;;;6307748;22;20162;-72
2023/04/01 15:34:44;;;;;;;1.40;1.40;;;11.60;99.90;;;;;;6281055;22;20148;-74
2023/04/01 15:37:26;;;;;;;1.83;1.73;;;11.70;99.90;;;;;;6280511;22;20179;-73
2023/04/01 15:40:01;;;;;;;2.78;2.58;;;11.80;99.90;;;;;;6307686;22;20206;-74
2023/04/01 15:46:09;;;;;;;1.00;1.00;;;11.70;99.90;;;;;;6307474;22;20222;-72
2023/04/01 15:48:56;;;;;;;2.78;1.00;;;11.60;99.90;;;;;;6281328;22;20151;-72
2023/04/01 15:51:22;;;;;;;1.55;0.90;;;11.70;99.90;;;;;;6281345;22;20193;-72
2023/04/01 15:54:41;;;;;;;1.25;1.10;;;11.70;99.90;;;;;;6280742;22;20156;-72
2023/04/01 15:57:44;;;;;;;0.90;0.90;;;11.60;99.90;;;;;;6279520;22;20180;-76
2023/04/01 16:00:47;;;;;;;1.42;0.80;;;11.60;99.90;;;;;;6158165;23;20187;-72
2023/04/01 16:03:57;;;;;;;0.77;0.77;;;11.60;99.90;;;;;;6280411;22;20209;-72
2023/04/01 16:10:24;;;;;;;0.80;0.80;;;11.80;99.90;;;;;;6307318;22;20144;-72
2023/04/01 16:13:23;;;;;;;0.70;0.70;;;11.80;99.90;;;;;;6307881;22;20159;-72
2023/04/01 16:16:14;;;;;;;0.73;0.73;;;11.80;99.90;;;;;;6307481;22;20170;-72
2023/04/01 16:18:43;;;;;;;1.15;0.80;;;11.90;99.90;;;;;;6280140;22;20145;-72
2023/04/01 16:21:35;;;;;;;0.60;0.60;;;11.90;99.90;;;;;;6281098;22;20329;-72
2023/04/01 16:24:29;;;;;;;0.90;0.68;;;11.90;99.90;;;;;;6280749;22;20167;-72
2023/04/01 16:27:19;;;;;;;0.43;0.43;;;11.80;99.90;;;;;;6265486;22;20281;-72
2023/04/01 16:29:50;;;;;;;0.60;0.60;;;11.70;99.90;;;;;;6309635;22;20203;-73
2023/04/01 16:32:38;;;;;;;0.80;0.80;;;11.70;99.90;;;;;;6282167;22;20528;-72
2023/04/01 16:35:33;;;;;;;0.60;0.60;;;11.70;99.90;;;;;;6282187;22;20144;-72
2023/04/01 16:38:31;;;;;;;0.80;0.80;;;11.50;99.90;;;;;;6282263;22;20160;-72
2023/04/01 16:41:02;;;;;;;1.85;0.85;;;11.40;99.90;;;;;;6282745;22;20551;-72
2023/04/01 16:43:42;;;;;;;2.03;0.73;;;11.30;99.90;;;;;;6281798;22;20156;-72
2023/04/01 16:46:28;;;;;;;0.70;0.70;;;11.20;99.90;;;;;;6281860;22;20201;-72
2023/04/01 16:49:12;;;;;;;0.60;0.60;;;11.20;99.90;;;;;;6281914;22;20171;-72
2023/04/01 16:51:37;;;;;;;0.93;0.88;;;11.10;99.90;;;;;;6281696;22;20178;-72
2023/04/01 16:54:32;;;;;;;0.80;0.80;;;11.00;99.90;;;;;;6282171;22;20542;-72
2023/04/01 16:57:10;;;;;;;0.68;0.68;;;11.00;99.90;;;;;;6282403;22;20183;-72
2023/04/01 17:03:03;;;;;;;0.95;0.82;;;10.80;99.90;;;;;;6309028;22;20175;-72
2023/04/01 17:05:45;;;;;;;2.55;1.02;;;10.70;99.90;;;;;;6308882;22;20577;-72
2023/04/01 17:08:35;;;;;;;0.90;0.90;;;10.70;99.90;;;;;;6281681;22;20273;-72
2023/04/01 17:11:22;;;;;;;2.65;0.90;;;10.70;99.90;;;;;;6282198;22;20180;-72
2023/04/01 17:14:27;;;;;;;1.00;0.85;;;10.70;99.90;;;;;;6282934;22;20153;-73
2023/04/01 17:17:40;;;;;;;0.90;0.90;;;10.70;99.90;;;;;;6308943;22;20217;-73
2023/04/01 17:20:28;;;;;;;1.20;1.10;;;10.60;99.90;;;;;;6270410;22;20183;-72
2023/04/01 17:22:58;;;;;;;2.88;1.00;;;10.60;99.90;;;;;;6282203;22;20497;-72
2023/04/01 17:25:43;;;;;;;1.05;1.05;;;10.60;99.90;;;;;;6281646;22;20153;-73
2023/04/01 17:28:24;;;;;;;3.53;1.00;;;10.60;99.90;;;;;;6281735;22;20157;-72
2023/04/01 17:31:07;;;;;;;1.23;1.02;;;10.60;99.90;;;;;;6308653;22;20143;-72
2023/04/01 17:37:07;;;;;;;0.88;0.88;;;10.50;99.90;;;;;;6308623;22;20187;-72
2023/04/01 17:39:52;;;;;;;1.60;1.00;;;10.40;99.90;;;;;;6282275;22;20156;-72
2023/04/01 17:42:42;;;;;;;0.80;0.80;;;10.40;99.90;;;;;;6282240;22;20152;-72
2023/04/01 17:45:10;;;;;;;14.35;12.95;;;10.30;99.90;;;;;;6308521;22;20132;-72
2023/04/01 17:48:01;;;;;;;6.80;6.30;;;10.40;99.90;;;;;;6281403;22;20176;-72
2023/04/01 17:50:44;;;;;;;21.02;19.02;;;10.40;99.90;;;;;;6282185;22;20186;-72
2023/04/01 17:53:28;;;;;;;16.48;14.98;;;10.30;99.90;;;;;;6281159;22;20156;-72
2023/04/01 17:56:03;;;;;;;12.90;11.80;;;10.30;99.90;;;;;;6308690;22;20172;-72
2023/04/01 17:58:56;;;;;;;11.90;10.80;;;10.30;99.90;;;;;;6281135;22;20182;-72
2023/04/01 18:01:33;;;;;;;8.32;7.60;;;10.30;99.90;;;;;;6280859;22;20186;-72
2023/04/01 18:04:25;;;;;;;3.42;3.22;;;10.30;99.90;;;;;;6281358;22;20587;-72
2023/04/01 18:07:38;;;;;;;2.28;2.10;;;10.20;99.90;;;;;;6281014;22;20226;-72
2023/04/01 18:10:28;;;;;;;1.42;1.33;;;10.20;99.90;;;;;;6159316;23;20174;-72
2023/04/01 18:13:08;;;;;;;2.55;1.60;;;10.10;99.90;;;;;;6184056;23;20163;-73
2023/04/01 18:19:08;;;;;;;2.40;2.30;;;10.10;99.90;;;;;;6308898;22;20151;-73
2023/04/01 18:21:56;;;;;;;2.20;2.10;;;10.10;99.90;;;;;;6280898;22;20230;-72
2023/04/01 18:24:30;;;;;;;2.22;2.13;;;10.10;99.90;;;;;;6308091;22;20140;-72
2023/04/01 18:27:23;;;;;;;2.20;2.10;;;10.10;99.90;;;;;;6280774;22;20179;-73
2023/04/01 18:30:15;;;;;;;2.10;2.00;;;10.10;99.90;;;;;;6280800;22;20194;-72
2023/04/01 18:32:59;;;;;;;1.42;1.42;;;10.10;99.90;;;;;;6280839;22;20237;-72
2023/04/01 18:35:47;;;;;;;1.52;1.40;;;10.10;99.90;;;;;;6282020;22;20180;-72
2023/04/01 18:38:34;;;;;;;1.40;1.30;;;10.10;99.90;;;;;;6281367;22;20150;-72
2023/04/01 18:41:18;;;;;;;2.03;1.90;;;10.10;99.90;;;;;;6219603;22;20196;-72
2023/04/01 18:43:59;;;;;;;7.63;6.88;;;10.10;99.90;;;;;;6281234;22;20156;-72
2023/04/01 18:46:44;;;;;;;3.03;2.15;;;10.00;99.90;;;;;;6280921;22;20175;-73
2023/04/01 18:49:28;;;;;;;3.88;1.95;;;10.10;99.90;;;;;;6308896;22;20175;-73
2023/04/01 18:51:59;;;;;;;5.07;4.20;;;10.00;99.90;;;;;;6280844;22;20152;-73
2023/04/01 18:54:55;;;;;;;7.75;5.40;;;10.00;99.90;;;;;;6280844;22;20144;-72
2023/04/01 18:57:58;;;;;;;4.68;3.75;;;9.90;99.90;;;;;;6158445;23;20179;-73
2023/04/01 19:00:36;;;;;;;6.00;3.10;;;9.90;99.90;;;;;;6128555;22;20185;-73
2023/04/01 19:03:22;;;;;;;4.97;1.70;;;9.90;99.90;;;;;;6281318;22;20152;-73
2023/04/01 19:05:52;;;;;;;6.60;1.50;;;9.90;99.90;;;;;;6280967;22;20180;-72
2023/04/01 19:09:12;;;;;;;3.17;1.20;;;9.90;99.90;;;;;;6280372;22;20156;-73
2023/04/01 19:11:49;;;;;;;2.38;1.10;;;9.90;99.90;;;;;;6275420;22;20172;-73
2023/04/01 19:14:34;;;;;;;0.73;0.73;;;9.80;99.90;;;;;;6276943;22;20199;-73
2023/04/01 19:17:06;;;;;;;0.80;0.80;;;9.80;99.90;;;;;;6275270;22;20183;-73
2023/04/01 19:23:31;;;;;;;5.75;5.25;;;9.70;99.90;;;;;;6276885;22;20152;-72
2023/04/01 19:25:59;;;;;;;8.80;7.90;;;9.70;99.90;;;;;;6275755;22;20186;-72
2023/04/01 19:28:34;;;;;;;28.02;23.00;;;9.70;99.90;;;;;;6276621;22;20144;-73
2023/04/01 19:31:39;;;;;;;14.75;13.05;;;9.70;99.90;;;;;;6275334;22;20156;-72
2023/04/01 19:34:59;;;;;;;4.65;4.25;;;9.70;99.90;;;;;;6276780;22;20224;-72
2023/04/01 19:37:37;;;;;;;4.60;4.30;;;9.70;99.90;;;;;;6275571;22;20543;-72
2023/04/01 19:40:34;;;;;;;4.90;3.88;;;9.70;99.90;;;;;;6275547;22;20180;-72
2023/04/01 19:46:41;;;;;;;2.20;2.10;;;9.70;99.90;;;;;;6276573;22;20174;-73
2023/04/01 19:49:18;;;;;;;1.58;1.50;;;9.60;99.90;;;;;;6275161;22;20152;-73
2023/04/01 19:52:05;;;;;;;2.90;2.70;;;9.60;99.90;;;;;;6275209;22;20169;-73
2023/04/01 19:54:45;;;;;;;1.75;1.65;;;9.60;99.90;;;;;;6275182;22;20155;-72
2023/04/01 19:58:03;;;;;;;3.55;3.35;;;9.50;99.90;;;;;;6276497;22;20181;-72
2023/04/01 20:00:44;;;;;;;4.35;4.05;;;9.60;99.90;;;;;;6278958;22;20164;-72
2023/04/01 20:03:44;;;;;;;3.90;3.60;;;9.60;99.90;;;;;;6277119;22;20156;-72
2023/04/01 20:06:13;;;;;;;4.40;4.10;;;9.50;99.90;;;;;;6278383;22;20165;-73
2023/04/01 20:09:03;;;;;;;3.50;3.30;;;9.60;99.90;;;;;;6276934;22;20176;-73
2023/04/01 20:11:42;;;;;;;5.05;4.72;;;9.50;99.90;;;;;;6276902;22;20181;-73
2023/04/01 20:14:39;;;;;;;3.30;3.10;;;9.50;99.90;;;;;;6278912;22;20585;-72
2023/04/01 20:21:21;;;;;;;16.25;14.95;;;9.50;99.90;;;;;;6278356;22;20179;-72
2023/04/01 20:23:52;;;;;;;2.33;2.22;;;9.40;99.90;;;;;;6277852;22;20146;-72
2023/04/01 20:26:25;;;;;;;1.60;1.50;;;9.30;99.90;;;;;;6276611;22;20182;-72
2023/04/01 20:29:23;;;;;;;1.45;1.20;;;9.30;99.90;;;;;;6276773;22;20165;-72
2023/04/01 20:32:11;;;;;;;1.00;1.00;;;9.40;99.90;;;;;;6276717;22;20145;-72
2023/04/01 20:35:24;;;;;;;1.30;0.90;;;9.40;99.90;;;;;;6276729;22;20586;-72
2023/04/01 20:38:04;;;;;;;1.45;0.90;;;9.40;99.90;;;;;;6277714;22;20149;-73
2023/04/01 20:40:38;;;;;;;1.00;0.75;;;9.40;99.90;;;;;;6277427;22;20181;-73
2023/04/01 20:43:43;;;;;;;0.70;0.70;;;9.50;99.90;;;;;;6277367;22;20193;-73
2023/04/01 20:46:47;;;;;;;0.60;0.60;;;9.50;99.90;;;;;;6277363;22;20169;-73
2023/04/01 20:49:39;;;;;;;0.55;0.55;;;9.50;99.90;;;;;;6276276;22;20222;-73
2023/04/01 20:52:13;;;;;;;0.80;0.80;;;9.50;99.90;;;;;;6278230;22;20133;-73
2023/04/01 20:54:48;;;;;;;1.33;0.85;;;9.40;99.90;;;;;;6276909;22;20148;-73
2023/04/01 20:57:25;;;;;;;1.23;0.80;;;9.40;99.90;;;;;;6277467;22;20196;-72
2023/04/01 21:03:43;;;;;;;0.85;0.80;;;9.50;99.90;;;;;;6277945;22;20187;-72
2023/04/01 21:06:34;;;;;;;0.60;0.60;;;9.50;99.90;;;;;;6276414;22;20172;-72
2023/04/01 21:09:18;;;;;;;0.70;0.70;;;9.40;99.90;;;;;;6276781;22;20164;-72
2023/04/01 21:11:56;;;;;;;0.70;0.70;;;9.40;99.90;;;;;;6303229;22;20239;-72
2023/04/01 21:14:37;;;;;;;0.60;0.60;;;9.40;99.90;;;;;;6281424;22;20661;-73
2023/04/01 21:17:30;;;;;;;0.70;0.70;;;9.40;99.90;;;;;;6309240;22;20240;-72
2023/04/01 21:20:16;;;;;;;2.65;0.70;;;9.40;99.90;;;;;;6308837;22;20210;-81
2023/04/01 21:23:00;;;;;;;0.70;0.70;;;9.40;99.90;;;;;;6309148;22;20141;-72
2023/04/01 21:25:52;;;;;;;0.68;0.68;;;9.50;99.90;;;;;;6308582;22;20206;-72
2023/04/01 21:28:51;;;;;;;0.70;0.70;;;9.40;99.90;;;;;;6281239;22;20141;-72
2023/04/01 21:31:28;;;;;;;0.90;0.90;;;9.40;99.90;;;;;;6308981;22;20152;-72
2023/04/01 21:34:37;;;;;;;1.00;1.00;;;9.40;99.90;;;;;;6281257;22;20493;-72
2023/04/01 21:37:32;;;;;;;1.70;0.68;;;9.40;99.90;;;;;;6308931;22;20605;-72
2023/04/01 21:40:19;;;;;;;0.98;0.90;;;9.40;99.90;;;;;;6281053;22;20149;-72
2023/04/01 21:42:58;;;;;;;1.98;1.75;;;9.40;99.90;;;;;;6281822;22;20145;-73
2023/04/01 21:45:43;;;;;;;1.70;1.60;;;9.40;99.90;;;;;;6282291;22;20167;-73
2023/04/01 21:48:29;;;;;;;1.73;1.63;;;9.50;99.90;;;;;;6282245;22;20144;-73
2023/04/01 21:51:04;;;;;;;3.65;2.80;;;9.50;99.90;;;;;;6281186;22;20222;-72
2023/04/01 21:53:58;;;;;;;2.63;2.45;;;9.60;99.90;;;;;;6308428;22;20147;-72
2023/04/01 21:56:42;;;;;;;2.25;1.52;;;9.50;99.90;;;;;;6280930;22;20222;-72
2023/04/01 22:00:02;;;;;;;1.00;1.00;;;9.50;99.90;;;;;;6282097;22;20145;-72
2023/04/01 22:02:44;;;;;;;1.00;1.00;;;9.50;99.90;;;;;;6281096;22;20187;-72
2023/04/01 22:05:30;;;;;;;0.75;0.75;;;9.50;99.90;;;;;;6280945;22;20148;-72
2023/04/01 22:08:36;;;;;;;0.80;0.80;;;9.50;99.90;;;;;;6282003;22;20198;-72
2023/04/01 22:11:03;;;;;;;0.90;0.90;;;9.40;99.90;;;;;;6275675;22;20172;-72
2023/04/01 22:13:39;;;;;;;0.90;0.85;;;9.40;99.90;;;;;;6276868;22;20156;-72
2023/04/01 22:16:31;;;;;;;1.25;1.00;;;9.40;99.90;;;;;;6276140;22;20172;-72
2023/04/01 22:19:42;;;;;;;0.65;0.65;;;9.30;99.90;;;;;;6276783;22;20149;-72
2023/04/01 22:22:18;;;;;;;0.80;0.80;;;9.30;99.90;;;;;;6276672;22;20145;-72
2023/04/01 22:25:10;;;;;;;1.33;1.00;;;9.30;99.90;;;;;;6276790;22;20219;-72
2023/04/01 22:27:56;;;;;;;1.00;1.00;;;9.30;99.90;;;;;;6275569;22;20256;-72
2023/04/01 22:30:42;;;;;;;0.90;0.90;;;9.30;99.90;;;;;;6276668;22;20175;-72
2023/04/01 22:33:21;;;;;;;0.88;0.88;;;9.30;99.90;;;;;;6275670;22;20581;-72
2023/04/01 22:36:15;;;;;;;1.10;1.00;;;9.30;99.90;;;;;;6275565;22;20208;-72
2023/04/01 22:38:55;;;;;;;1.10;1.10;;;9.20;99.90;;;;;;6231669;22;20153;-72
2023/04/01 22:41:34;;;;;;;0.90;0.90;;;9.20;99.90;;;;;;6277099;22;20204;-72
2023/04/01 22:44:00;;;;;;;1.10;1.10;;;9.20;99.90;;;;;;6277038;22;20191;-72
2023/04/01 22:46:32;;;;;;;3.03;1.20;;;9.20;99.90;;;;;;6275427;22;20176;-72
2023/04/01 22:49:16;;;;;;;1.27;1.27;;;9.20;99.90;;;;;;6275487;22;20142;-72
2023/04/01 22:51:51;;;;;;;1.23;1.13;;;9.10;99.90;;;;;;6275617;22;20149;-72
2023/04/01 22:54:34;;;;;;;2.45;1.23;;;9.10;99.90;;;;;;6277371;22;20164;-72
2023/04/01 22:57:12;;;;;;;2.00;1.20;;;9.10;99.90;;;;;;6276841;22;20232;-72
2023/04/01 22:59:44;;;;;;;1.85;1.30;;;9.10;99.90;;;;;;6276563;22;20510;-72
2023/04/01 23:02:30;;;;;;;1.35;1.25;;;9.00;99.90;;;;;;6275442;22;20149;-72
2023/04/01 23:05:00;;;;;;;1.45;1.35;;;9.00;99.90;;;;;;6276433;22;20137;-72
2023/04/01 23:07:56;;;;;;;1.30;1.30;;;9.00;99.90;;;;;;6275724;22;20177;-72
2023/04/01 23:10:35;;;;;;;1.80;1.70;;;9.00;99.90;;;;;;6275398;22;20548;-72
2023/04/01 23:13:03;;;;;;;2.20;1.48;;;9.00;99.90;;;;;;6275362;22;20157;-73
2023/04/01 23:15:29;;;;;;;1.40;1.40;;;8.90;99.90;;;;;;6277103;22;20191;-73
2023/04/01 23:18:04;;;;;;;1.70;1.60;;;8.90;99.90;;;;;;6275225;22;20202;-72
2023/04/01 23:20:44;;;;;;;1.60;1.50;;;8.90;99.90;;;;;;6275537;22;20184;-72
2023/04/01 23:23:37;;;;;;;1.40;1.40;;;8.90;99.90;;;;;;6276369;22;20183;-72
2023/04/01 23:26:09;;;;;;;1.60;1.60;;;8.90;99.90;;;;;;6276803;22;20165;-72
2023/04/01 23:32:02;;;;;;;1.70;1.70;;;8.90;99.90;;;;;;6276794;22;20164;-72
2023/04/01 23:34:31;;;;;;;1.80;1.70;;;8.90;99.90;;;;;;6278119;22;20153;-72
2023/04/01 23:37:00;;;;;;;1.55;1.55;;;8.90;99.90;;;;;;6278759;22;20232;-72
2023/04/01 23:39:41;;;;;;;1.80;1.70;;;9.00;99.90;;;;;;6278801;22;20149;-72
2023/04/01 23:42:28;;;;;;;1.70;1.60;;;9.00;99.90;;;;;;6278422;22;20192;-72
2023/04/01 23:44:57;;;;;;;1.90;1.80;;;9.00;99.90;;;;;;6278851;22;20187;-72
2023/04/01 23:47:26;;;;;;;1.90;1.80;;;9.10;99.90;;;;;;6278645;22;20580;-72
2023/04/01 23:49:51;;;;;;;2.00;1.90;;;9.10;99.90;;;;;;6279065;22;20195;-72
2023/04/01 23:52:30;;;;;;;2.15;2.05;;;9.10;99.90;;;;;;6277585;22;20228;-72
2023/04/01 23:55:01;;;;;;;3.20;2.05;;;9.10;99.90;;;;;;6278294;22;20168;-72
2023/04/01 23:57:35;;;;;;;1.83;1.75;;;9.10;99.90;;;;;;6278138;22;20173;-72
